Grannis, Arkansas
Current Conditions -  °F | °C
As of 8:38 AM on Thursday 30 Oct 2014 (Local Time) from KDEQ Reporting Station
Few Clouds Few Clouds  
Wind Chill: 45°   Ceiling: Unl
Heat Index: 45°   Visibility: 10mi
Dew Point: 44°   Wind: 0mph
Humidity: 97%   Direction: NA
Pressure: 30.16"   Gusts: NA
Location:  34.24°N, 94.33°W
Report Text: KDEQ 301338Z AUTO 00000KT 10SM FEW002 07/07 A3016 RMK AO2 T00720067
Loading
Personal Weather Stations






























Interactive Weather Map
Tropical Storm Tracking
New forecast layout! Learn more

10-Day Weather Forecast

Advertisements
Track Severe Weather on mobile